Time;durP1;ratioP1;P1;durP2;ratioP2;P2;SDS_P1;SDS_P2;PMS_P1;PMS_P2;Temp;Humidity;BMP_temperature;BMP_pressure;BME280_temperature;BME280_humidity;BME280_pressure;Samples;Min_cycle;Max_cycle;Signal;HPM_P1;HPM_P2
2023/01/05 00:01:44;;;;;;;0.60;0.60;;;10.90;99.90;;;;;;5110161;28;20239;-84
2023/01/05 00:04:12;;;;;;;0.52;0.52;;;10.90;99.90;;;;;;5110869;28;20208;-84
2023/01/05 00:06:42;;;;;;;0.80;0.70;;;10.90;99.90;;;;;;5109823;28;20228;-84
2023/01/05 00:09:13;;;;;;;0.90;0.90;;;10.80;99.90;;;;;;5110914;28;20208;-84
2023/01/05 00:22:52;;;;;;;1.02;0.95;;;10.70;99.90;;;;;;5111046;28;20216;-84
2023/01/05 00:25:23;;;;;;;0.82;0.82;;;10.60;99.90;;;;;;5110995;28;20326;-84
2023/01/05 00:27:53;;;;;;;0.70;0.70;;;10.60;99.90;;;;;;5110546;28;20208;-85
2023/01/05 00:30:24;;;;;;;0.73;0.73;;;10.60;99.90;;;;;;5110590;28;20215;-84
2023/01/05 00:32:52;;;;;;;0.80;0.80;;;10.70;99.90;;;;;;5090107;28;20217;-84
2023/01/05 00:35:22;;;;;;;1.35;1.00;;;10.80;99.90;;;;;;5090099;28;20217;-84
2023/01/05 00:37:51;;;;;;;0.75;0.75;;;10.90;99.90;;;;;;5090101;28;20243;-84
2023/01/05 00:40:21;;;;;;;0.65;0.65;;;11.00;99.90;;;;;;5090148;28;20212;-84
2023/01/05 00:42:49;;;;;;;0.95;0.95;;;11.00;99.90;;;;;;5090305;28;20220;-84
2023/01/05 00:45:20;;;;;;;0.47;0.47;;;11.00;99.90;;;;;;5091211;28;20234;-84
2023/01/05 00:47:50;;;;;;;0.70;0.70;;;11.10;99.90;;;;;;5110235;28;20220;-83
2023/01/05 00:50:20;;;;;;;0.50;0.50;;;11.10;99.90;;;;;;5110390;28;20242;-83
2023/01/05 00:52:49;;;;;;;0.88;0.88;;;11.10;99.90;;;;;;5110650;28;20231;-84
2023/01/05 00:55:17;;;;;;;0.52;0.52;;;11.00;99.90;;;;;;5110401;28;20228;-84
2023/01/05 00:57:46;;;;;;;0.40;0.40;;;11.10;99.90;;;;;;5110104;28;20203;-83
2023/01/05 01:00:18;;;;;;;0.55;0.55;;;11.10;99.90;;;;;;5109920;28;20237;-83
2023/01/05 01:02:51;;;;;;;0.70;0.68;;;11.20;99.90;;;;;;5110049;28;20211;-83
2023/01/05 01:05:20;;;;;;;0.63;0.63;;;11.20;99.90;;;;;;5110420;28;20226;-83
2023/01/05 01:07:48;;;;;;;0.50;0.50;;;11.20;99.90;;;;;;5112913;28;20212;-84
2023/01/05 01:10:17;;;;;;;0.82;0.80;;;11.30;99.90;;;;;;5113636;28;20208;-82
2023/01/05 01:12:45;;;;;;;0.60;0.60;;;11.30;99.90;;;;;;5113344;28;20211;-82
2023/01/05 01:15:13;;;;;;;0.63;0.63;;;11.30;99.90;;;;;;5113561;28;20244;-82
2023/01/05 01:17:41;;;;;;;0.75;0.68;;;11.30;99.90;;;;;;5113503;28;20231;-82
2023/01/05 01:20:12;;;;;;;0.50;0.50;;;11.30;99.90;;;;;;5113991;28;20212;-82
2023/01/05 01:22:40;;;;;;;0.90;0.60;;;11.30;99.90;;;;;;5114134;28;20218;-82
2023/01/05 01:25:09;;;;;;;0.82;0.70;;;11.40;99.90;;;;;;5113887;28;20222;-83
2023/01/05 01:27:38;;;;;;;0.30;0.30;;;11.40;99.90;;;;;;5113605;28;20230;-84
2023/01/05 01:30:07;;;;;;;0.38;0.38;;;11.40;99.90;;;;;;5113772;28;20208;-83
2023/01/05 01:32:35;;;;;;;1.42;0.75;;;11.40;99.90;;;;;;5113410;28;20300;-83
2023/01/05 01:35:04;;;;;;;0.30;0.30;;;11.30;99.90;;;;;;5113144;28;20228;-85
2023/01/05 01:37:34;;;;;;;0.55;0.55;;;11.30;99.90;;;;;;5113046;28;20207;-84
2023/01/05 01:40:02;;;;;;;0.45;0.45;;;11.20;99.90;;;;;;5114648;28;20206;-84
2023/01/05 01:42:30;;;;;;;1.02;0.57;;;11.20;99.90;;;;;;5116070;28;20204;-84
2023/01/05 01:45:00;;;;;;;0.57;0.50;;;11.10;99.90;;;;;;5115602;28;20283;-83
2023/01/05 01:47:36;;;;;;;1.00;0.60;;;11.10;99.90;;;;;;5115221;28;20220;-82
2023/01/05 01:50:10;;;;;;;0.45;0.45;;;11.00;99.90;;;;;;5115171;28;20211;-83
2023/01/05 01:52:41;;;;;;;0.57;0.52;;;11.00;99.90;;;;;;5115380;28;20203;-83
2023/01/05 01:55:10;;;;;;;0.30;0.30;;;11.00;99.90;;;;;;5115268;28;20303;-83
2023/01/05 01:57:39;;;;;;;0.40;0.40;;;11.00;99.90;;;;;;5115156;28;20200;-84
2023/01/05 02:00:12;;;;;;;0.55;0.52;;;11.00;99.90;;;;;;5115254;28;20214;-83
2023/01/05 02:02:40;;;;;;;0.50;0.50;;;11.00;99.90;;;;;;5114505;28;20216;-83
2023/01/05 02:05:11;;;;;;;0.55;0.55;;;11.00;99.90;;;;;;5115271;28;20231;-83
2023/01/05 02:07:45;;;;;;;0.77;0.77;;;11.00;99.90;;;;;;5114597;28;20259;-83
2023/01/05 02:10:14;;;;;;;0.70;0.70;;;11.00;99.90;;;;;;5115178;28;20199;-83
2023/01/05 02:12:58;;;;;;;0.30;0.30;;;11.10;99.90;;;;;;5115210;28;20204;-84
2023/01/05 02:15:35;;;;;;;0.40;0.40;;;11.10;99.90;;;;;;5114909;28;20216;-83
2023/01/05 02:18:20;;;;;;;0.47;0.47;;;11.10;99.90;;;;;;5114724;28;20202;-83
2023/01/05 02:21:05;;;;;;;1.23;0.60;;;11.10;99.90;;;;;;5114758;28;20238;-83
2023/01/05 02:24:08;;;;;;;0.28;0.28;;;11.10;99.90;;;;;;5114902;28;20223;-83
2023/01/05 02:27:18;;;;;;;0.50;0.45;;;11.20;99.90;;;;;;5114718;28;20223;-83
2023/01/05 02:30:29;;;;;;;0.32;0.32;;;11.20;99.90;;;;;;5114466;28;20200;-83
2023/01/05 02:33:02;;;;;;;0.32;0.32;;;11.30;99.90;;;;;;5114818;28;20211;-83
2023/01/05 02:35:40;;;;;;;0.50;0.50;;;11.30;99.90;;;;;;5114407;28;20235;-83
2023/01/05 02:38:12;;;;;;;0.50;0.50;;;11.40;99.90;;;;;;5101004;28;20199;-83
2023/01/05 02:40:44;;;;;;;3.20;1.17;;;11.50;99.90;;;;;;5114321;28;20207;-83
2023/01/05 02:43:15;;;;;;;0.30;0.30;;;11.50;99.90;;;;;;5114556;28;20200;-82
2023/01/05 02:45:43;;;;;;;0.20;0.20;;;11.50;99.90;;;;;;5114266;28;20232;-83
2023/01/05 02:48:13;;;;;;;0.32;0.32;;;11.60;99.90;;;;;;5113770;28;20227;-83
2023/01/05 02:50:47;;;;;;;0.13;0.13;;;11.60;99.90;;;;;;5114538;28;20203;-83
2023/01/05 02:53:20;;;;;;;0.90;0.55;;;11.60;99.90;;;;;;5113987;27;20203;-83
2023/01/05 02:55:52;;;;;;;0.60;0.60;;;11.70;99.90;;;;;;5114093;28;20255;-83
2023/01/05 02:58:30;;;;;;;0.30;0.30;;;11.70;99.90;;;;;;5113683;28;20206;-82
2023/01/05 03:01:01;;;;;;;0.17;0.17;;;11.70;99.90;;;;;;5114111;28;20217;-82
2023/01/05 03:03:34;;;;;;;0.30;0.30;;;11.80;99.90;;;;;;5113857;28;20235;-82
2023/01/05 03:06:06;;;;;;;0.43;0.43;;;11.80;99.90;;;;;;5113694;28;20234;-83
2023/01/05 03:08:38;;;;;;;0.35;0.35;;;11.90;99.90;;;;;;5113458;28;20216;-84
2023/01/05 03:13:58;;;;;;;0.35;0.35;;;11.90;99.90;;;;;;5113739;28;20207;-83
2023/01/05 03:16:30;;;;;;;0.30;0.30;;;11.90;99.90;;;;;;5113931;28;20219;-84
2023/01/05 03:35:57;;;;;;;0.45;0.45;;;11.80;99.90;;;;;;5113325;28;20390;-82
2023/01/05 03:38:30;;;;;;;0.40;0.40;;;11.80;99.90;;;;;;5113109;28;20204;-83
2023/01/05 03:41:03;;;;;;;0.20;0.20;;;11.90;99.90;;;;;;5113309;28;20230;-83
2023/01/05 03:43:34;;;;;;;0.30;0.30;;;11.80;99.90;;;;;;5113679;28;20203;-82
2023/01/05 03:46:10;;;;;;;0.20;0.20;;;11.80;99.90;;;;;;5093005;28;20300;-83
2023/01/05 03:48:38;;;;;;;0.35;0.35;;;11.80;99.90;;;;;;5092741;28;20288;-83
2023/01/05 03:51:08;;;;;;;0.77;0.68;;;11.90;99.90;;;;;;5102248;28;20279;-83
2023/01/05 03:53:37;;;;;;;0.30;0.30;;;11.90;99.90;;;;;;5113386;28;20298;-84
2023/01/05 03:56:05;;;;;;;0.65;0.40;;;12.00;99.90;;;;;;5113099;28;20223;-83
2023/01/05 03:58:33;;;;;;;0.45;0.45;;;12.00;99.90;;;;;;5112986;28;20210;-83
2023/01/05 04:01:02;;;;;;;0.30;0.30;;;11.90;99.90;;;;;;5113474;28;20214;-83
2023/01/05 04:03:30;;;;;;;0.28;0.28;;;11.90;99.90;;;;;;5112977;28;20295;-83
2023/01/05 04:05:59;;;;;;;0.30;0.30;;;11.90;99.90;;;;;;5111943;28;20226;-83
2023/01/05 04:08:30;;;;;;;0.35;0.35;;;11.90;99.90;;;;;;5092252;28;20235;-83
2023/01/05 04:11:09;;;;;;;0.43;0.43;;;11.90;99.90;;;;;;5092745;28;20208;-83
2023/01/05 04:13:38;;;;;;;0.38;0.30;;;11.90;99.90;;;;;;5092661;28;20208;-84
2023/01/05 04:16:06;;;;;;;1.13;0.73;;;11.90;99.90;;;;;;5092517;28;20224;-83
2023/01/05 04:18:35;;;;;;;0.10;0.10;;;11.90;99.90;;;;;;5092205;28;20204;-83
2023/01/05 04:21:04;;;;;;;0.40;0.40;;;11.90;99.90;;;;;;5106645;28;20288;-83
2023/01/05 04:23:34;;;;;;;0.63;0.50;;;11.80;99.90;;;;;;5112865;28;20208;-83
2023/01/05 04:26:03;;;;;;;0.55;0.32;;;11.90;99.90;;;;;;5112938;28;20311;-84
2023/01/05 04:28:31;;;;;;;1.05;0.65;;;11.90;99.90;;;;;;5112652;28;20226;-83
2023/01/05 04:31:00;;;;;;;0.32;0.05;;;11.90;99.90;;;;;;5112408;28;20204;-83
2023/01/05 04:33:28;;;;;;;0.20;0.20;;;11.90;99.90;;;;;;5113008;28;20211;-83
2023/01/05 04:35:56;;;;;;;0.45;0.45;;;11.90;99.90;;;;;;5112462;28;20226;-84
2023/01/05 04:38:24;;;;;;;0.30;0.30;;;11.90;99.90;;;;;;5112778;28;20203;-83
2023/01/05 04:40:54;;;;;;;0.47;0.30;;;12.00;99.90;;;;;;5112799;28;20291;-83
2023/01/05 04:43:22;;;;;;;0.30;0.30;;;12.00;99.90;;;;;;5116351;28;20206;-83
2023/01/05 04:45:51;;;;;;;0.20;0.20;;;12.00;99.90;;;;;;5117002;28;20323;-83
2023/01/05 04:48:19;;;;;;;0.50;0.17;;;12.00;99.90;;;;;;5116255;28;20322;-84
2023/01/05 04:50:53;;;;;;;3.13;0.65;;;12.00;99.90;;;;;;5116370;28;20283;-83
2023/01/05 04:53:22;;;;;;;0.40;0.30;;;12.00;99.90;;;;;;5116660;28;20218;-83
2023/01/05 04:55:51;;;;;;;0.47;0.47;;;12.00;99.90;;;;;;5116383;28;20231;-83
2023/01/05 04:58:21;;;;;;;0.40;0.40;;;12.10;99.90;;;;;;5116469;28;20203;-84
2023/01/05 05:00:49;;;;;;;0.40;0.40;;;12.10;99.90;;;;;;5116525;27;20207;-83
2023/01/05 05:03:18;;;;;;;0.30;0.30;;;12.10;99.90;;;;;;5116665;28;20203;-84
2023/01/05 05:05:46;;;;;;;0.22;0.22;;;12.10;99.90;;;;;;5115200;28;20212;-84
2023/01/05 05:08:15;;;;;;;0.50;0.50;;;12.10;99.90;;;;;;5115840;28;20222;-83
2023/01/05 05:10:43;;;;;;;0.30;0.30;;;12.10;99.90;;;;;;5115976;28;20211;-84
2023/01/05 05:13:11;;;;;;;0.47;0.47;;;12.10;99.90;;;;;;5115837;28;20199;-84
2023/01/05 05:15:41;;;;;;;0.30;0.30;;;12.10;99.90;;;;;;5095432;28;20224;-84
2023/01/05 05:18:09;;;;;;;0.30;0.28;;;12.20;99.90;;;;;;5095674;28;20204;-84
2023/01/05 05:20:41;;;;;;;0.20;0.20;;;12.20;99.90;;;;;;5095923;28;20208;-84
2023/01/05 05:23:10;;;;;;;0.10;0.10;;;12.20;99.90;;;;;;5095605;28;20213;-84
2023/01/05 05:25:38;;;;;;;0.30;0.30;;;12.20;99.90;;;;;;5115114;28;20294;-84
2023/01/05 05:28:06;;;;;;;0.20;0.20;;;12.20;99.90;;;;;;5115287;28;20226;-84
2023/01/05 05:30:35;;;;;;;0.20;0.20;;;12.20;99.90;;;;;;5114916;28;20283;-84
2023/01/05 05:33:04;;;;;;;0.22;0.22;;;12.20;99.90;;;;;;5115698;28;20203;-84
2023/01/05 05:35:33;;;;;;;0.25;0.25;;;12.20;99.90;;;;;;5115567;28;20254;-84
2023/01/05 05:38:01;;;;;;;0.52;0.52;;;12.20;99.90;;;;;;5115472;28;20203;-84
2023/01/05 05:40:29;;;;;;;0.15;0.15;;;12.20;99.90;;;;;;5115499;28;20210;-84
2023/01/05 05:42:57;;;;;;;0.10;0.10;;;12.20;99.90;;;;;;5116445;28;20204;-84
2023/01/05 05:45:26;;;;;;;0.40;0.40;;;12.20;99.90;;;;;;5116213;28;20227;-84
2023/01/05 05:47:54;;;;;;;0.35;0.35;;;12.30;99.90;;;;;;5116005;28;20207;-85
2023/01/05 05:50:24;;;;;;;0.20;0.20;;;12.30;99.90;;;;;;5115956;28;20203;-83
2023/01/05 05:52:52;;;;;;;0.30;0.30;;;12.30;99.90;;;;;;5116070;28;20199;-84
2023/01/05 05:55:20;;;;;;;0.17;0.17;;;12.30;99.90;;;;;;5116156;28;20230;-84
2023/01/05 05:57:49;;;;;;;0.20;0.20;;;12.40;99.90;;;;;;5115679;28;20303;-84
2023/01/05 06:00:17;;;;;;;0.20;0.20;;;12.30;99.90;;;;;;5116112;28;20212;-85
2023/01/05 06:02:46;;;;;;;0.38;0.38;;;12.40;99.90;;;;;;5115686;28;20218;-84
2023/01/05 06:05:14;;;;;;;0.20;0.20;;;12.40;99.90;;;;;;5115428;28;20247;-85
2023/01/05 06:07:44;;;;;;;0.25;0.25;;;12.40;99.90;;;;;;5115407;28;20214;-85
2023/01/05 06:10:12;;;;;;;0.40;0.28;;;12.40;99.90;;;;;;5115619;28;20220;-84
2023/01/05 06:12:41;;;;;;;0.40;0.40;;;12.40;99.90;;;;;;5116100;28;20256;-85
2023/01/05 06:15:10;;;;;;;0.25;0.25;;;12.40;99.90;;;;;;5115967;28;20288;-85
2023/01/05 06:17:38;;;;;;;0.10;0.10;;;12.50;99.90;;;;;;5114996;28;20227;-85
2023/01/05 06:20:08;;;;;;;0.30;0.30;;;12.50;99.90;;;;;;5115511;28;20195;-84
2023/01/05 06:22:37;;;;;;;0.57;0.40;;;12.50;99.90;;;;;;5115172;28;20210;-84
2023/01/05 06:25:07;;;;;;;0.30;0.30;;;12.40;99.90;;;;;;5115324;28;20223;-83
2023/01/05 06:27:36;;;;;;;0.20;0.20;;;12.40;99.90;;;;;;5114966;28;20206;-83
2023/01/05 06:30:05;;;;;;;0.35;0.35;;;12.40;99.90;;;;;;5115108;28;20219;-84
2023/01/05 06:32:33;;;;;;;0.40;0.40;;;12.50;99.90;;;;;;5114118;28;20302;-84
2023/01/05 06:35:01;;;;;;;0.90;0.47;;;12.50;99.90;;;;;;5114054;28;20223;-84
2023/01/05 06:37:30;;;;;;;0.90;0.43;;;12.50;99.90;;;;;;5115109;28;20238;-84
2023/01/05 06:39:58;;;;;;;0.30;0.30;;;12.50;99.90;;;;;;5115524;28;20204;-84
2023/01/05 06:42:28;;;;;;;0.20;0.20;;;12.50;99.90;;;;;;5115450;28;20207;-83
2023/01/05 06:44:56;;;;;;;0.40;0.40;;;12.50;99.90;;;;;;5115113;28;20213;-84
2023/01/05 06:47:25;;;;;;;0.20;0.20;;;12.50;99.90;;;;;;5114821;28;20211;-83
2023/01/05 06:49:53;;;;;;;0.50;0.50;;;12.60;99.90;;;;;;5114618;28;20261;-84
2023/01/05 06:52:22;;;;;;;0.38;0.38;;;12.60;99.90;;;;;;5114802;28;20263;-84
2023/01/05 06:55:01;;;;;;;0.28;0.28;;;12.60;99.90;;;;;;5114191;28;20200;-84
2023/01/05 06:57:31;;;;;;;0.70;0.43;;;12.60;99.90;;;;;;5114630;27;20210;-84
2023/01/05 06:59:59;;;;;;;0.30;0.30;;;12.60;99.90;;;;;;5114604;28;20200;-83
2023/01/05 07:02:28;;;;;;;0.40;0.40;;;12.60;99.90;;;;;;5114626;28;20198;-84
2023/01/05 07:04:56;;;;;;;0.28;0.28;;;12.60;99.90;;;;;;5113678;28;20200;-85
2023/01/05 07:07:24;;;;;;;0.57;0.57;;;12.60;99.90;;;;;;5114609;28;20208;-84
2023/01/05 07:09:52;;;;;;;0.40;0.40;;;12.70;99.90;;;;;;5114396;28;20216;-84
2023/01/05 07:12:24;;;;;;;0.73;0.40;;;12.80;99.90;;;;;;5114395;28;20200;-83
2023/01/05 07:14:54;;;;;;;0.30;0.30;;;12.80;99.90;;;;;;5114118;28;20203;-83
2023/01/05 07:17:25;;;;;;;21.10;1.20;;;12.80;99.90;;;;;;5094616;28;20207;-84
2023/01/05 07:20:06;;;;;;;0.35;0.35;;;12.80;99.90;;;;;;5114388;28;20196;-84
2023/01/05 07:22:35;;;;;;;0.35;0.35;;;12.80;99.90;;;;;;5114299;28;20208;-84
2023/01/05 07:25:03;;;;;;;0.30;0.30;;;12.80;99.90;;;;;;5113672;28;20294;-84
2023/01/05 07:27:31;;;;;;;0.30;0.30;;;12.80;99.90;;;;;;5113847;28;20223;-84
2023/01/05 07:30:01;;;;;;;0.50;0.50;;;12.80;99.90;;;;;;5113717;28;20216;-84
2023/01/05 07:32:30;;;;;;;0.25;0.25;;;12.80;99.90;;;;;;5114357;28;20191;-84
2023/01/05 07:34:58;;;;;;;0.32;0.32;;;12.80;99.90;;;;;;5111806;28;20199;-83
2023/01/05 07:37:26;;;;;;;0.20;0.20;;;12.90;99.90;;;;;;5114187;28;20294;-84
2023/01/05 07:39:55;;;;;;;0.28;0.28;;;12.90;99.90;;;;;;5113987;28;20222;-83
2023/01/05 07:42:24;;;;;;;0.50;0.50;;;12.90;99.90;;;;;;5113840;28;20192;-82
2023/01/05 07:44:53;;;;;;;0.25;0.25;;;12.90;99.90;;;;;;5112770;28;20282;-81
2023/01/05 07:47:28;;;;;;;0.40;0.40;;;13.00;99.90;;;;;;5112240;28;20192;-82
2023/01/05 07:49:57;;;;;;;0.30;0.30;;;13.00;99.90;;;;;;5104040;28;20219;-81
2023/01/05 07:52:28;;;;;;;0.38;0.38;;;13.00;99.90;;;;;;5093235;28;20227;-81
2023/01/05 07:54:57;;;;;;;0.65;0.60;;;13.00;99.90;;;;;;5111811;28;20202;-81
2023/01/05 07:57:30;;;;;;;0.30;0.30;;;13.00;99.90;;;;;;5113275;28;20206;-81
2023/01/05 07:59:58;;;;;;;0.40;0.40;;;13.00;99.90;;;;;;5110674;28;20282;-81
2023/01/05 08:02:28;;;;;;;0.25;0.25;;;13.00;99.90;;;;;;5114055;28;20195;-81
2023/01/05 08:05:03;;;;;;;0.22;0.22;;;13.10;99.90;;;;;;5113504;28;20227;-82
2023/01/05 08:07:31;;;;;;;0.32;0.30;;;13.10;99.90;;;;;;5112931;28;20203;-81
2023/01/05 08:15:28;;;;;;;0.30;0.30;;;13.10;99.90;;;;;;5101958;28;20234;-81
2023/01/05 08:17:58;;;;;;;0.30;0.30;;;13.20;99.90;;;;;;5116718;28;20199;-81
2023/01/05 08:20:26;;;;;;;0.50;0.50;;;13.20;99.90;;;;;;5116521;28;20204;-81
2023/01/05 08:22:54;;;;;;;0.40;0.40;;;13.20;99.90;;;;;;5117427;28;20211;-81
2023/01/05 08:25:23;;;;;;;1.17;0.82;;;13.20;99.90;;;;;;5117339;28;20229;-82
2023/01/05 08:27:51;;;;;;;0.47;0.47;;;13.10;99.90;;;;;;5116881;28;20199;-81
2023/01/05 08:30:19;;;;;;;0.30;0.30;;;13.10;99.90;;;;;;5117094;28;20219;-80
2023/01/05 08:32:48;;;;;;;0.43;0.43;;;13.10;99.90;;;;;;5117686;28;20196;-81
2023/01/05 08:35:17;;;;;;;1.88;1.77;;;13.10;99.90;;;;;;5117309;28;20234;-81
2023/01/05 08:37:46;;;;;;;0.20;0.20;;;13.10;99.90;;;;;;5116374;28;20206;-80
2023/01/05 08:40:14;;;;;;;0.70;0.70;;;13.10;99.90;;;;;;5117289;28;20311;-81
2023/01/05 08:42:46;;;;;;;0.30;0.30;;;13.10;99.90;;;;;;5117358;28;20200;-81
2023/01/05 08:45:15;;;;;;;0.47;0.47;;;13.10;99.90;;;;;;5116104;28;20219;-81
2023/01/05 08:47:51;;;;;;;1.08;0.68;;;13.10;99.90;;;;;;5115347;28;20200;-80
2023/01/05 08:50:21;;;;;;;0.60;0.60;;;13.10;99.90;;;;;;5109037;28;20370;-81
2023/01/05 08:52:58;;;;;;;0.90;0.73;;;13.20;99.90;;;;;;5116520;28;20272;-80
2023/01/05 08:55:26;;;;;;;0.65;0.65;;;13.10;99.90;;;;;;5116377;28;20223;-80
2023/01/05 08:57:57;;;;;;;4.35;0.73;;;13.20;99.90;;;;;;5116009;28;20199;-81
2023/01/05 09:00:26;;;;;;;0.30;0.30;;;13.10;99.90;;;;;;5116561;28;20199;-85
2023/01/05 09:02:55;;;;;;;0.50;0.50;;;13.20;99.90;;;;;;5104592;28;20205;-80
2023/01/05 09:05:25;;;;;;;0.38;0.38;;;13.20;99.90;;;;;;5096750;28;20224;-80
2023/01/05 09:07:53;;;;;;;0.63;0.63;;;13.20;99.90;;;;;;5115032;28;20195;-79
2023/01/05 09:10:22;;;;;;;0.40;0.40;;;13.20;99.90;;;;;;5116753;28;20311;-85
2023/01/05 09:12:50;;;;;;;0.50;0.50;;;13.20;99.90;;;;;;5116357;28;20208;-82
2023/01/05 09:15:18;;;;;;;1.45;0.45;;;13.20;99.90;;;;;;5116345;28;20238;-80
2023/01/05 09:17:47;;;;;;;0.32;0.32;;;13.20;99.90;;;;;;5115354;28;20200;-80
2023/01/05 09:20:15;;;;;;;0.30;0.30;;;13.20;99.90;;;;;;5116659;28;20207;-80
2023/01/05 09:22:45;;;;;;;0.30;0.30;;;13.20;99.90;;;;;;5116408;28;20212;-81
2023/01/05 09:25:13;;;;;;;0.20;0.20;;;13.20;99.90;;;;;;5116621;28;20224;-84
2023/01/05 09:27:42;;;;;;;0.35;0.35;;;13.30;99.90;;;;;;5114673;28;20206;-80
2023/01/05 09:30:14;;;;;;;0.43;0.43;;;13.30;99.90;;;;;;5116332;28;20306;-79
2023/01/05 09:32:43;;;;;;;0.43;0.43;;;13.30;99.90;;;;;;5116695;28;20207;-80
2023/01/05 09:35:20;;;;;;;0.50;0.50;;;13.30;99.90;;;;;;5115848;28;20223;-81
2023/01/05 09:37:50;;;;;;;0.40;0.40;;;13.30;99.90;;;;;;5115175;28;20207;-80
2023/01/05 09:40:19;;;;;;;0.22;0.22;;;13.40;99.90;;;;;;5116143;28;20203;-80
2023/01/05 09:42:48;;;;;;;0.57;0.57;;;13.40;99.90;;;;;;5116023;28;20208;-81
2023/01/05 09:45:25;;;;;;;0.30;0.30;;;13.40;99.90;;;;;;5115850;28;20231;-80
2023/01/05 09:47:55;;;;;;;0.28;0.28;;;13.30;99.90;;;;;;5113923;28;20264;-80
2023/01/05 09:50:26;;;;;;;0.30;0.30;;;13.30;99.90;;;;;;5115462;28;20226;-79
2023/01/05 09:52:59;;;;;;;0.40;0.40;;;13.30;99.90;;;;;;5116158;28;20204;-80
2023/01/05 09:55:30;;;;;;;0.63;0.63;;;13.40;99.90;;;;;;5115664;28;20223;-80
2023/01/05 09:58:03;;;;;;;0.32;0.30;;;13.40;99.90;;;;;;5115246;28;20200;-80
2023/01/05 10:00:33;;;;;;;0.70;0.70;;;13.40;99.90;;;;;;5115951;28;20219;-81
2023/01/05 10:03:05;;;;;;;0.35;0.35;;;13.40;99.90;;;;;;5115745;28;20204;-81
2023/01/05 10:05:37;;;;;;;0.30;0.30;;;13.40;99.90;;;;;;5115013;28;20287;-81
2023/01/05 10:08:15;;;;;;;0.60;0.60;;;13.40;99.90;;;;;;5114236;28;20206;-81
2023/01/05 10:13:01;;;;;;;11.25;0.60;;;13.30;99.90;;;;;;5095166;28;20224;-80
2023/01/05 10:13:38;;;;;;;0.50;0.50;;;13.30;99.90;;;;;;5095722;28;20211;-80
2023/01/05 10:16:06;;;;;;;1.05;0.77;;;13.30;99.90;;;;;;5098967;28;20228;-81
2023/01/05 10:18:36;;;;;;;0.52;0.52;;;13.30;99.90;;;;;;5115607;28;20211;-81
2023/01/05 10:21:15;;;;;;;0.90;0.60;;;13.30;99.90;;;;;;5115162;28;20278;-79
2023/01/05 10:23:57;;;;;;;0.50;0.43;;;13.20;99.90;;;;;;5115242;28;20207;-78
2023/01/05 10:26:33;;;;;;;1.65;1.05;;;13.10;99.90;;;;;;5114645;28;20215;-79
2023/01/05 10:29:25;;;;;;;1.38;1.27;;;12.50;99.90;;;;;;5095051;28;20196;-80
2023/01/05 10:31:59;;;;;;;1.20;1.10;;;11.70;99.90;;;;;;5102742;28;20305;-82
2023/01/05 10:34:44;;;;;;;1.17;1.05;;;11.20;99.90;;;;;;5114962;28;20200;-82
2023/01/05 10:37:30;;;;;;;0.73;0.73;;;10.70;99.90;;;;;;5113880;28;20223;-84
2023/01/05 10:40:15;;;;;;;0.57;0.57;;;10.40;99.90;;;;;;5113489;28;20196;-81
2023/01/05 10:42:53;;;;;;;0.73;0.73;;;10.20;99.90;;;;;;5115155;28;20206;-80
2023/01/05 10:45:22;;;;;;;0.85;0.75;;;10.10;99.90;;;;;;5094410;28;20292;-80
2023/01/05 10:47:52;;;;;;;0.95;0.95;;;10.00;99.90;;;;;;5112172;28;20279;-81
2023/01/05 10:50:31;;;;;;;3.13;1.02;;;10.00;99.90;;;;;;5114779;28;20286;-80
2023/01/05 10:53:05;;;;;;;0.90;0.80;;;10.00;99.90;;;;;;5114826;28;20203;-81
2023/01/05 10:55:43;;;;;;;2.05;1.17;;;10.00;99.90;;;;;;5114526;28;20239;-81
2023/01/05 10:58:22;;;;;;;1.20;1.10;;;10.00;99.90;;;;;;5113562;28;20291;-80
2023/01/05 11:00:52;;;;;;;1.90;1.15;;;10.00;99.90;;;;;;5110300;28;20196;-81
2023/01/05 11:03:41;;;;;;;0.90;0.90;;;10.00;99.90;;;;;;5114484;28;20231;-81
2023/01/05 11:06:32;;;;;;;1.48;0.98;;;10.10;99.90;;;;;;5113205;28;20219;-81
2023/01/05 11:09:10;;;;;;;1.35;1.23;;;10.10;99.90;;;;;;5114301;28;20196;-81
2023/01/05 11:11:40;;;;;;;0.80;0.80;;;10.10;99.90;;;;;;5113786;28;20310;-80
2023/01/05 11:14:15;;;;;;;0.75;0.65;;;10.10;99.90;;;;;;5114275;28;20226;-81
2023/01/05 11:17:07;;;;;;;1.77;1.10;;;10.00;99.90;;;;;;5113263;28;20215;-81
2023/01/05 11:19:40;;;;;;;2.03;0.90;;;10.10;99.90;;;;;;5113517;28;20288;-81
2023/01/05 11:22:29;;;;;;;1.45;1.02;;;10.10;99.90;;;;;;5113916;28;20219;-81
2023/01/05 11:25:14;;;;;;;0.80;0.80;;;10.00;99.90;;;;;;5093734;28;20208;-86
2023/01/05 11:27:44;;;;;;;1.52;1.10;;;10.10;99.90;;;;;;5110425;28;20195;-82
2023/01/05 11:30:23;;;;;;;1.67;0.82;;;10.20;99.90;;;;;;5113978;28;20207;-83
2023/01/05 11:32:51;;;;;;;10.13;1.88;;;10.50;99.90;;;;;;5113639;28;20306;-82
2023/01/05 11:35:25;;;;;;;0.93;0.93;;;10.80;99.90;;;;;;5113622;28;20212;-82
2023/01/05 11:37:53;;;;;;;1.40;0.90;;;11.10;99.90;;;;;;5112725;28;20226;-82
2023/01/05 11:40:27;;;;;;;0.82;0.77;;;11.30;99.90;;;;;;5113725;28;20246;-82
2023/01/05 11:42:57;;;;;;;4.05;1.52;;;11.40;99.90;;;;;;5113929;28;20202;-82
2023/01/05 11:45:41;;;;;;;1.65;1.05;;;11.40;99.90;;;;;;5092786;28;20276;-82
2023/01/05 11:48:18;;;;;;;2.58;1.50;;;11.50;99.90;;;;;;5111921;28;20278;-83
2023/01/05 11:50:49;;;;;;;3.58;1.30;;;11.50;99.90;;;;;;5112496;28;20199;-82
2023/01/05 11:53:38;;;;;;;2.70;1.38;;;11.70;99.90;;;;;;5112550;28;20246;-82
2023/01/05 11:56:19;;;;;;;2.03;1.38;;;11.90;99.90;;;;;;5096578;28;20216;-82
2023/01/05 11:58:50;;;;;;;1.70;1.55;;;12.30;99.90;;;;;;5113145;28;20214;-81
2023/01/05 12:01:54;;;;;;;1.30;1.20;;;12.60;99.90;;;;;;5093309;28;20257;-82
2023/01/05 12:04:48;;;;;;;1.52;1.42;;;13.20;99.90;;;;;;5093419;28;20210;-81
2023/01/05 12:07:34;;;;;;;2.90;1.58;;;13.40;99.90;;;;;;5101427;28;20204;-81
2023/01/05 12:10:35;;;;;;;10.48;1.75;;;13.60;99.90;;;;;;5113317;28;20290;-81
2023/01/05 12:13:14;;;;;;;1.92;1.23;;;13.80;99.90;;;;;;5112538;28;20214;-81
2023/01/05 12:16:15;;;;;;;1.52;1.15;;;13.20;99.90;;;;;;5113164;28;20251;-81
2023/01/05 12:19:09;;;;;;;2.47;1.20;;;12.60;99.90;;;;;;5104139;28;20200;-81
2023/01/05 12:21:44;;;;;;;1.05;0.93;;;12.30;99.90;;;;;;5113846;28;20214;-81
2023/01/05 12:24:36;;;;;;;2.35;1.35;;;12.00;99.90;;;;;;5113627;28;20204;-81
2023/01/05 12:27:19;;;;;;;0.82;0.82;;;11.80;99.90;;;;;;5112259;28;20211;-84
2023/01/05 12:30:18;;;;;;;1.70;0.95;;;11.70;99.90;;;;;;5113185;28;20260;-83
2023/01/05 12:33:23;;;;;;;1.75;1.20;;;11.50;99.90;;;;;;5113189;28;20226;-82
2023/01/05 12:36:32;;;;;;;2.22;1.15;;;11.40;99.90;;;;;;5111986;28;20219;-82
2023/01/05 12:39:22;;;;;;;0.90;0.88;;;11.30;99.90;;;;;;5112702;28;20222;-83
2023/01/05 12:42:15;;;;;;;1.85;1.38;;;11.30;99.90;;;;;;5113059;28;20232;-81
2023/01/05 12:44:57;;;;;;;2.08;1.38;;;11.30;99.90;;;;;;5112871;28;20203;-83
2023/01/05 12:47:51;;;;;;;1.52;1.10;;;11.30;99.90;;;;;;5112056;28;20272;-82
2023/01/05 12:50:35;;;;;;;1.38;1.27;;;11.30;99.90;;;;;;5112527;28;20195;-82
2023/01/05 12:53:13;;;;;;;1.55;1.00;;;11.40;99.90;;;;;;5113048;28;20215;-80
2023/01/05 12:55:45;;;;;;;1.83;1.20;;;11.40;99.90;;;;;;5112610;28;20252;-80
2023/01/05 12:58:43;;;;;;;0.85;0.85;;;11.40;99.90;;;;;;5112886;28;20260;-80
2023/01/05 13:01:25;;;;;;;1.73;1.48;;;11.50;99.90;;;;;;5112690;28;20235;-80
2023/01/05 13:03:57;;;;;;;1.48;1.27;;;11.60;99.90;;;;;;5115197;28;20197;-80
2023/01/05 13:06:31;;;;;;;4.43;1.70;;;11.90;99.90;;;;;;5115185;28;20294;-80
2023/01/05 13:09:04;;;;;;;1.38;0.95;;;12.20;99.90;;;;;;5116345;28;20192;-80
2023/01/05 13:11:36;;;;;;;1.20;1.10;;;12.40;99.90;;;;;;5116650;28;20211;-80
2023/01/05 13:14:16;;;;;;;5.30;1.05;;;12.60;99.90;;;;;;5116274;28;20283;-80
2023/01/05 13:16:48;;;;;;;0.93;0.90;;;12.70;99.90;;;;;;5110537;28;20246;-81
2023/01/05 13:19:28;;;;;;;0.70;0.70;;;12.90;99.90;;;;;;5116374;28;20204;-82
2023/01/05 13:22:03;;;;;;;1.80;1.00;;;13.10;99.90;;;;;;5109318;28;20211;-81
2023/01/05 13:24:37;;;;;;;0.73;0.70;;;13.30;99.90;;;;;;5096144;28;20207;-80
2023/01/05 13:27:09;;;;;;;2.13;1.05;;;13.40;99.90;;;;;;5107932;28;20226;-80
2023/01/05 13:29:45;;;;;;;2.83;1.35;;;13.60;99.90;;;;;;5115743;28;20235;-80
2023/01/05 13:32:28;;;;;;;0.98;0.90;;;13.60;99.90;;;;;;5116307;28;20307;-81
2023/01/05 13:35:19;;;;;;;3.45;1.27;;;13.60;99.90;;;;;;5116252;28;20213;-81
2023/01/05 13:38:20;;;;;;;1.15;0.93;;;13.70;99.90;;;;;;5114708;28;20245;-80
2023/01/05 13:41:08;;;;;;;3.17;1.15;;;13.70;99.90;;;;;;5116303;28;20218;-81
2023/01/05 13:44:16;;;;;;;1.63;1.27;;;13.50;99.90;;;;;;5115654;28;20255;-81
2023/01/05 13:47:03;;;;;;;1.00;0.90;;;13.30;99.90;;;;;;5093508;28;20227;-80
2023/01/05 13:50:08;;;;;;;1.27;1.08;;;13.00;99.90;;;;;;5116028;28;20279;-81
2023/01/05 13:52:53;;;;;;;3.30;1.30;;;12.60;99.90;;;;;;5115598;28;20227;-81
2023/01/05 13:55:25;;;;;;;1.50;1.17;;;12.40;99.90;;;;;;5115510;28;20227;-81